Time;durP1;ratioP1;P1;durP2;ratioP2;P2;SDS_P1;SDS_P2;PMS_P1;PMS_P2;Temp;Humidity;BMP_temperature;BMP_pressure;BME280_temperature;BME280_humidity;BME280_pressure;Samples;Min_cycle;Max_cycle;Signal;HPM_P1;HPM_P2
2020/12/19 00:02:07;;;;;;;12.25;8.02;;;4.20;99.90;;;;;;5078101;28;20024;-79
2020/12/19 00:04:33;;;;;;;16.58;8.38;;;4.30;99.90;;;;;;5078343;28;20028;-80
2020/12/19 00:06:59;;;;;;;16.33;8.65;;;4.30;99.90;;;;;;5078333;28;20031;-80
2020/12/19 00:09:25;;;;;;;13.50;8.75;;;4.20;99.90;;;;;;5096025;28;20357;-80
2020/12/19 00:11:51;;;;;;;13.27;8.35;;;4.20;99.90;;;;;;5095390;28;20024;-80
2020/12/19 00:14:18;;;;;;;13.95;8.43;;;4.10;99.90;;;;;;5077552;28;20379;-80
2020/12/19 00:16:44;;;;;;;13.60;8.55;;;3.90;99.90;;;;;;5077759;28;20024;-80
2020/12/19 00:19:10;;;;;;;12.90;8.18;;;3.80;99.90;;;;;;5096504;28;20028;-80
2020/12/19 00:21:36;;;;;;;15.73;8.05;;;3.80;99.90;;;;;;5095662;28;20229;-80
2020/12/19 00:24:03;;;;;;;17.65;9.73;;;3.80;99.90;;;;;;5095831;28;20475;-80
2020/12/19 00:26:37;;;;;;;20.45;12.48;;;3.70;99.90;;;;;;5095778;28;20034;-80
2020/12/19 00:29:05;;;;;;;19.83;12.50;;;3.60;99.90;;;;;;5096027;28;20028;-80
2020/12/19 00:31:31;;;;;;;19.85;12.10;;;3.70;99.90;;;;;;5095900;28;20028;-80
2020/12/19 00:33:58;;;;;;;19.15;11.60;;;3.80;99.90;;;;;;5095685;28;20077;-79
2020/12/19 00:36:24;;;;;;;19.15;10.70;;;3.80;99.90;;;;;;5077481;28;20020;-79
2020/12/19 00:38:50;;;;;;;18.20;10.60;;;3.80;99.90;;;;;;5077466;28;20024;-79
2020/12/19 00:41:24;;;;;;;14.18;8.75;;;3.90;99.90;;;;;;5077340;28;20020;-79
2020/12/19 00:43:51;;;;;;;16.23;9.48;;;4.00;99.90;;;;;;5095779;28;20024;-79
2020/12/19 00:46:18;;;;;;;12.50;8.10;;;4.10;99.90;;;;;;5095378;28;20035;-79
2020/12/19 00:48:44;;;;;;;10.43;7.18;;;4.20;99.90;;;;;;5095500;28;20027;-79
2020/12/19 00:51:18;;;;;;;13.63;7.93;;;4.10;99.90;;;;;;5095319;28;20032;-81
2020/12/19 00:53:45;;;;;;;11.75;7.28;;;3.90;99.90;;;;;;5095615;28;20109;-79
2020/12/19 00:56:22;;;;;;;13.23;7.13;;;3.90;99.90;;;;;;5095194;28;20024;-80
2020/12/19 00:58:49;;;;;;;10.25;6.90;;;3.90;99.90;;;;;;5077083;28;20115;-81
2020/12/19 01:01:17;;;;;;;12.15;6.32;;;4.00;99.90;;;;;;5095074;28;20149;-80
2020/12/19 01:03:43;;;;;;;10.35;6.15;;;4.10;99.90;;;;;;5094942;28;20089;-80
2020/12/19 01:06:14;;;;;;;10.23;6.53;;;4.00;99.90;;;;;;5076834;28;20024;-80
2020/12/19 01:08:40;;;;;;;8.75;5.75;;;4.10;99.90;;;;;;5076762;28;20062;-79
2020/12/19 01:11:05;;;;;;;10.48;6.35;;;4.10;99.90;;;;;;5095217;28;20020;-79
2020/12/19 01:13:31;;;;;;;12.57;6.90;;;4.00;99.90;;;;;;5076794;28;20019;-79
2020/12/19 01:15:57;;;;;;;11.55;6.53;;;4.00;99.90;;;;;;5094776;28;20089;-79
2020/12/19 01:18:22;;;;;;;11.68;7.13;;;4.10;99.90;;;;;;5076677;28;20020;-82
2020/12/19 01:20:48;;;;;;;15.23;7.63;;;4.10;99.90;;;;;;5076400;28;20059;-80
2020/12/19 01:23:14;;;;;;;12.07;6.50;;;4.00;99.90;;;;;;5076436;28;20028;-81
2020/12/19 01:25:39;;;;;;;10.13;6.70;;;4.00;99.90;;;;;;5094718;28;20024;-81
2020/12/19 01:28:05;;;;;;;8.90;6.00;;;4.10;99.90;;;;;;5076488;28;20020;-81
2020/12/19 01:30:31;;;;;;;11.60;5.80;;;4.00;99.90;;;;;;5076240;28;20021;-81
2020/12/19 01:32:56;;;;;;;13.10;5.47;;;4.20;99.90;;;;;;5076436;28;20024;-81
2020/12/19 01:35:22;;;;;;;8.20;6.00;;;4.40;99.90;;;;;;5094505;28;20517;-81
2020/12/19 01:37:48;;;;;;;12.15;6.32;;;4.50;99.90;;;;;;5094675;28;20020;-81
2020/12/19 01:40:14;;;;;;;13.80;4.60;;;4.60;99.90;;;;;;5076189;28;20032;-80
2020/12/19 01:42:39;;;;;;;8.55;5.30;;;4.70;99.90;;;;;;5076212;28;20030;-81
2020/12/19 01:45:05;;;;;;;8.60;4.82;;;4.90;99.90;;;;;;5094299;28;20024;-80
2020/12/19 01:47:33;;;;;;;7.38;5.20;;;5.00;99.90;;;;;;5094266;28;20031;-81
2020/12/19 01:50:00;;;;;;;7.88;5.78;;;4.90;99.90;;;;;;5094724;28;20020;-81
2020/12/19 01:52:29;;;;;;;8.05;4.78;;;4.90;99.90;;;;;;5094559;28;20030;-81
2020/12/19 01:54:57;;;;;;;8.68;5.03;;;4.70;99.90;;;;;;5076033;28;20512;-81
2020/12/19 01:57:26;;;;;;;7.53;4.78;;;4.70;99.90;;;;;;5094136;28;20016;-81
2020/12/19 01:59:52;;;;;;;7.05;4.50;;;4.80;99.90;;;;;;5094065;28;20024;-80
2020/12/19 02:02:22;;;;;;;10.48;5.25;;;4.90;99.90;;;;;;5075900;28;20027;-81
2020/12/19 02:04:48;;;;;;;10.50;4.72;;;4.90;99.90;;;;;;5094112;28;20101;-81
2020/12/19 02:07:14;;;;;;;7.50;4.60;;;4.90;99.90;;;;;;5093957;28;20024;-81
2020/12/19 02:09:41;;;;;;;10.18;5.47;;;5.00;99.90;;;;;;5093851;28;20028;-81
2020/12/19 02:12:11;;;;;;;7.13;4.53;;;5.00;99.90;;;;;;5093912;28;20020;-81
2020/12/19 02:14:38;;;;;;;9.07;4.43;;;5.10;99.90;;;;;;5075750;28;20118;-81
2020/12/19 02:17:12;;;;;;;6.25;4.38;;;5.00;99.90;;;;;;5075698;28;20501;-81
2020/12/19 02:19:38;;;;;;;8.05;5.13;;;5.10;99.90;;;;;;5093814;28;20031;-81
2020/12/19 02:22:05;;;;;;;9.13;5.28;;;5.00;99.90;;;;;;5093644;28;20087;-81
2020/12/19 02:24:31;;;;;;;9.45;4.50;;;5.10;99.90;;;;;;5075674;28;20061;-81
2020/12/19 02:26:58;;;;;;;10.27;5.07;;;5.10;99.90;;;;;;5075562;28;20039;-81
2020/12/19 02:29:28;;;;;;;7.63;5.05;;;5.10;99.90;;;;;;5093480;28;20487;-81
2020/12/19 02:31:55;;;;;;;6.10;4.35;;;5.00;99.90;;;;;;5093735;28;20028;-80
2020/12/19 02:34:21;;;;;;;8.40;4.90;;;5.10;99.90;;;;;;5093875;28;20028;-81
2020/12/19 02:36:47;;;;;;;7.85;5.13;;;5.10;99.90;;;;;;5099589;28;20064;-81
2020/12/19 02:39:13;;;;;;;9.00;5.10;;;5.10;99.90;;;;;;5100390;28;20039;-80
2020/12/19 02:41:41;;;;;;;7.95;4.90;;;5.10;99.90;;;;;;5100632;28;20024;-81
2020/12/19 02:44:08;;;;;;;9.98;5.18;;;5.10;99.90;;;;;;5100348;28;20024;-80
2020/12/19 02:46:34;;;;;;;8.57;5.25;;;4.80;99.90;;;;;;5082085;28;20391;-81
2020/12/19 02:49:00;;;;;;;8.50;4.90;;;4.90;99.90;;;;;;5100459;28;20111;-81
2020/12/19 02:51:26;;;;;;;8.02;4.93;;;4.90;99.90;;;;;;5082094;28;20052;-80
2020/12/19 02:53:52;;;;;;;9.15;5.50;;;5.00;99.90;;;;;;5082102;28;20047;-80
2020/12/19 02:56:17;;;;;;;8.43;4.60;;;5.10;99.90;;;;;;5100206;28;20028;-81
2020/12/19 02:58:43;;;;;;;7.18;4.90;;;5.10;99.90;;;;;;5081927;28;20047;-81
2020/12/19 03:01:09;;;;;;;8.40;4.82;;;5.00;99.90;;;;;;5100478;28;20016;-81
2020/12/19 03:03:35;;;;;;;8.65;5.03;;;5.00;99.90;;;;;;5100383;28;20062;-80
2020/12/19 03:06:00;;;;;;;7.63;4.32;;;5.00;99.90;;;;;;5100135;28;20016;-81
2020/12/19 03:08:26;;;;;;;7.47;4.65;;;5.10;99.90;;;;;;5081921;28;20070;-81
2020/12/19 03:10:52;;;;;;;6.95;5.00;;;4.90;99.90;;;;;;5081819;28;20024;-80
2020/12/19 03:13:17;;;;;;;8.65;4.65;;;5.00;99.90;;;;;;5100041;28;20031;-81
2020/12/19 03:15:43;;;;;;;7.80;4.80;;;4.90;99.90;;;;;;5100208;28;20043;-81
2020/12/19 03:18:09;;;;;;;6.68;4.65;;;4.80;99.90;;;;;;5100308;28;20028;-81
2020/12/19 03:20:34;;;;;;;9.45;4.95;;;4.80;99.90;;;;;;5081656;28;20028;-80
2020/12/19 03:23:00;;;;;;;10.07;5.72;;;4.50;99.90;;;;;;5081900;28;20031;-80
2020/12/19 03:25:29;;;;;;;10.68;5.05;;;4.70;99.90;;;;;;5081814;28;20024;-81
2020/12/19 03:27:54;;;;;;;8.48;5.22;;;4.80;99.90;;;;;;5099994;28;20463;-80
2020/12/19 03:30:23;;;;;;;8.02;4.80;;;4.90;99.90;;;;;;5081630;28;20020;-81
2020/12/19 03:32:53;;;;;;;7.43;5.20;;;5.00;99.90;;;;;;5081654;28;20113;-81
2020/12/19 03:35:19;;;;;;;9.02;5.07;;;4.60;99.90;;;;;;5100320;28;20028;-81
2020/12/19 03:37:46;;;;;;;8.50;4.68;;;4.20;99.90;;;;;;5082231;28;20043;-81
2020/12/19 03:40:12;;;;;;;10.20;4.93;;;4.00;99.90;;;;;;5081564;28;20028;-81
2020/12/19 03:42:38;;;;;;;7.35;5.57;;;3.90;99.90;;;;;;5100020;28;20082;-81
2020/12/19 03:45:05;;;;;;;7.50;5.30;;;3.80;99.90;;;;;;5081750;28;20028;-81
2020/12/19 03:47:31;;;;;;;12.35;5.05;;;3.70;99.90;;;;;;5079889;28;20030;-81
2020/12/19 03:49:56;;;;;;;8.27;5.38;;;3.90;99.90;;;;;;5096720;28;20374;-81
2020/12/19 03:52:22;;;;;;;9.52;5.10;;;3.90;99.90;;;;;;5078357;28;20024;-80
2020/12/19 03:54:48;;;;;;;7.10;4.32;;;3.90;99.90;;;;;;5096526;28;20032;-81
2020/12/19 03:57:13;;;;;;;10.15;4.95;;;4.00;99.90;;;;;;5078262;28;20420;-81
2020/12/19 03:59:39;;;;;;;8.90;5.07;;;3.90;99.90;;;;;;5078234;28;20028;-81
2020/12/19 04:02:05;;;;;;;7.97;5.47;;;3.70;99.90;;;;;;5078158;28;20368;-81
2020/12/19 04:04:30;;;;;;;13.23;5.55;;;3.60;99.90;;;;;;5096257;28;20059;-81
2020/12/19 04:06:56;;;;;;;7.55;4.55;;;3.60;99.90;;;;;;5078111;28;20024;-81
2020/12/19 04:09:22;;;;;;;7.93;4.90;;;3.70;99.90;;;;;;5096140;28;20445;-81
2020/12/19 04:11:47;;;;;;;9.63;4.93;;;3.90;99.90;;;;;;5077958;28;20123;-80
2020/12/19 04:14:13;;;;;;;8.80;4.70;;;4.00;99.90;;;;;;5096098;28;20012;-81
2020/12/19 04:16:39;;;;;;;11.73;5.05;;;4.00;99.90;;;;;;5096231;28;20020;-80
2020/12/19 04:19:05;;;;;;;7.82;4.85;;;4.00;99.90;;;;;;5077806;28;20024;-81
2020/12/19 04:21:30;;;;;;;7.75;4.38;;;4.10;99.90;;;;;;5095930;28;20127;-81
2020/12/19 04:23:56;;;;;;;9.15;4.75;;;4.20;99.90;;;;;;5096400;28;20089;-80
2020/12/19 04:26:22;;;;;;;8.38;4.97;;;4.30;99.90;;;;;;5095879;28;20036;-81
2020/12/19 04:28:47;;;;;;;7.38;4.72;;;4.20;99.90;;;;;;5095701;28;20107;-81
2020/12/19 04:31:13;;;;;;;9.60;4.68;;;4.10;99.90;;;;;;5096233;28;20024;-81
2020/12/19 04:33:39;;;;;;;5.38;4.15;;;4.30;99.90;;;;;;5095705;28;20027;-81
2020/12/19 04:36:04;;;;;;;5.88;4.40;;;4.20;99.90;;;;;;5077488;28;20487;-80
2020/12/19 04:38:30;;;;;;;7.65;5.13;;;4.10;99.90;;;;;;5095626;28;20024;-81
2020/12/19 04:40:59;;;;;;;8.38;5.10;;;3.90;99.90;;;;;;5077407;28;20020;-81
2020/12/19 04:43:26;;;;;;;5.90;4.35;;;3.70;99.90;;;;;;5095481;28;20379;-80
2020/12/19 04:45:54;;;;;;;7.82;4.20;;;3.60;99.90;;;;;;5077298;28;20024;-81
2020/12/19 04:48:23;;;;;;;8.05;4.65;;;3.70;99.90;;;;;;5077239;28;20038;-80
2020/12/19 04:50:50;;;;;;;7.03;4.57;;;3.70;99.90;;;;;;5095255;28;20416;-81
2020/12/19 04:53:20;;;;;;;6.30;4.45;;;3.60;99.90;;;;;;5077175;28;20067;-80
2020/12/19 04:55:46;;;;;;;7.55;4.55;;;3.80;99.90;;;;;;5077131;28;20020;-81
2020/12/19 04:58:15;;;;;;;5.95;4.40;;;4.00;99.90;;;;;;5094996;28;20024;-81
2020/12/19 05:00:41;;;;;;;6.85;4.03;;;4.10;99.90;;;;;;5076956;28;20030;-81
2020/12/19 05:03:07;;;;;;;7.22;4.22;;;4.20;99.90;;;;;;5095159;28;20035;-80
2020/12/19 05:05:40;;;;;;;5.68;4.30;;;4.10;99.90;;;;;;5095095;28;20027;-81
2020/12/19 05:08:06;;;;;;;5.28;3.92;;;4.10;99.90;;;;;;5095119;28;20509;-80
2020/12/19 05:10:31;;;;;;;21.52;8.10;;;4.10;99.90;;;;;;5094895;28;20028;-81
2020/12/19 05:12:57;;;;;;;19.75;7.63;;;4.10;99.90;;;;;;5094843;28;20024;-81
2020/12/19 05:15:23;;;;;;;8.98;4.30;;;4.10;99.90;;;;;;5094849;28;20016;-81
2020/12/19 05:17:58;;;;;;;6.88;3.97;;;4.00;99.90;;;;;;5094819;28;20024;-81
2020/12/19 05:20:26;;;;;;;7.55;5.18;;;3.90;99.90;;;;;;5094873;28;20016;-81
2020/12/19 05:22:53;;;;;;;7.72;4.57;;;3.60;99.90;;;;;;5076452;28;20603;-81
2020/12/19 05:25:21;;;;;;;8.60;4.75;;;3.40;99.90;;;;;;5076547;28;20470;-81
2020/12/19 05:27:49;;;;;;;7.13;4.50;;;3.30;99.90;;;;;;5076519;28;20545;-81
2020/12/19 05:30:17;;;;;;;9.57;4.30;;;3.20;99.90;;;;;;5094856;28;20525;-81
2020/12/19 05:32:43;;;;;;;6.70;4.40;;;3.20;99.90;;;;;;5094556;28;20024;-81
2020/12/19 05:35:10;;;;;;;8.82;4.88;;;3.10;99.90;;;;;;5094737;28;20467;-81
2020/12/19 05:37:36;;;;;;;7.25;4.55;;;3.20;99.90;;;;;;5076332;28;20490;-81
2020/12/19 05:40:10;;;;;;;6.40;4.25;;;3.30;99.90;;;;;;5076260;28;20028;-81
2020/12/19 05:42:36;;;;;;;;;;;3.10;99.90;;;;;;5076716;28;20111;-81
2020/12/19 05:45:11;;;;;;;5.95;3.92;;;3.30;99.90;;;;;;5094317;28;20274;-81
2020/12/19 05:47:37;;;;;;;9.55;4.75;;;3.50;99.90;;;;;;5094597;28;20024;-81
2020/12/19 05:50:03;;;;;;;6.78;4.20;;;3.50;99.90;;;;;;5094141;28;20028;-81
2020/12/19 05:52:31;;;;;;;10.73;4.50;;;3.60;99.90;;;;;;5094281;28;20025;-81
2020/12/19 05:54:58;;;;;;;7.85;4.75;;;3.60;99.90;;;;;;5094234;28;20459;-81
2020/12/19 05:57:26;;;;;;;9.18;4.85;;;3.60;99.90;;;;;;5094145;28;20016;-81
2020/12/19 05:59:53;;;;;;;6.75;4.80;;;3.70;99.90;;;;;;5094104;28;20016;-81
2020/12/19 06:02:20;;;;;;;7.32;4.55;;;3.60;99.90;;;;;;5075898;28;20398;-81
2020/12/19 06:04:47;;;;;;;8.02;4.60;;;3.60;99.90;;;;;;5094042;28;20107;-81
2020/12/19 06:07:13;;;;;;;9.57;4.93;;;3.50;99.90;;;;;;5075884;28;20031;-81
2020/12/19 06:09:42;;;;;;;7.90;4.25;;;3.70;99.90;;;;;;5093527;28;20024;-81
2020/12/19 06:12:22;;;;;;;7.88;4.28;;;3.80;99.90;;;;;;5075406;28;20031;-81
2020/12/19 06:14:51;;;;;;;5.35;3.95;;;3.70;99.90;;;;;;5093899;28;20065;-81
2020/12/19 06:17:24;;;;;;;7.00;4.20;;;3.60;99.90;;;;;;5093733;28;20040;-81
2020/12/19 06:19:50;;;;;;;7.32;4.22;;;3.60;99.90;;;;;;5075684;28;20054;-81
2020/12/19 06:22:16;;;;;;;7.63;4.07;;;3.70;99.90;;;;;;5075517;28;20055;-81
2020/12/19 06:24:46;;;;;;;5.95;3.95;;;3.60;99.90;;;;;;5093757;28;20024;-81
2020/12/19 06:27:18;;;;;;;6.00;4.15;;;3.70;99.90;;;;;;5075553;28;20062;-81
2020/12/19 06:29:44;;;;;;;7.90;4.32;;;3.60;99.90;;;;;;5075548;28;20024;-81
2020/12/19 06:32:29;;;;;;;5.68;4.07;;;3.70;99.90;;;;;;5093681;28;20395;-81
2020/12/19 06:35:09;;;;;;;6.13;4.05;;;3.60;99.90;;;;;;5075587;28;20137;-81
2020/12/19 06:37:38;;;;;;;6.50;3.95;;;3.40;99.90;;;;;;5093676;28;20491;-81
2020/12/19 06:40:15;;;;;;;9.25;4.60;;;3.40;99.90;;;;;;5093625;28;20364;-81
2020/12/19 06:42:44;;;;;;;7.07;4.35;;;3.40;99.90;;;;;;5075518;28;20027;-81
2020/12/19 06:45:21;;;;;;;6.97;4.95;;;3.50;99.90;;;;;;5093560;28;20032;-81
2020/12/19 06:47:47;;;;;;;5.80;4.20;;;3.40;99.90;;;;;;5075548;28;20053;-81
2020/12/19 06:50:13;;;;;;;6.32;4.65;;;3.60;99.90;;;;;;5093411;28;20024;-81
2020/12/19 06:52:50;;;;;;;6.18;4.00;;;3.40;99.90;;;;;;5093499;28;20353;-81
2020/12/19 06:55:20;;;;;;;8.75;4.40;;;3.60;99.90;;;;;;5093507;28;20012;-81
2020/12/19 06:57:51;;;;;;;6.93;4.65;;;3.40;99.90;;;;;;5093491;28;20017;-81
2020/12/19 07:00:24;;;;;;;7.13;5.07;;;3.30;99.90;;;;;;5093409;28;20491;-81
2020/12/19 07:02:55;;;;;;;8.63;4.78;;;3.20;99.90;;;;;;5075300;28;20031;-81
2020/12/19 07:05:26;;;;;;;6.38;4.55;;;3.10;99.90;;;;;;5075244;28;20028;-81
2020/12/19 07:07:53;;;;;;;8.35;5.35;;;3.10;99.90;;;;;;5093314;28;20443;-81
2020/12/19 07:10:35;;;;;;;10.25;7.18;;;3.00;99.90;;;;;;5075079;28;20020;-81
2020/12/19 07:13:01;;;;;;;6.10;4.75;;;3.00;99.90;;;;;;5093375;28;20103;-81
2020/12/19 07:15:50;;;;;;;9.73;4.30;;;3.00;99.90;;;;;;5093483;28;20044;-81
2020/12/19 07:18:33;;;;;;;6.75;4.20;;;3.20;99.90;;;;;;5093213;28;20020;-81
2020/12/19 07:21:07;;;;;;;6.32;4.50;;;3.40;99.90;;;;;;5074893;28;20054;-81
2020/12/19 07:23:35;;;;;;;4.97;3.65;;;3.50;99.90;;;;;;5078927;28;20475;-81
2020/12/19 07:26:02;;;;;;;5.43;3.83;;;3.50;99.90;;;;;;5098212;28;20031;-81
2020/12/19 07:28:28;;;;;;;6.93;4.35;;;3.50;99.90;;;;;;5078929;28;20032;-81
2020/12/19 07:30:54;;;;;;;5.88;4.00;;;3.50;99.90;;;;;;5078579;28;20453;-81
2020/12/19 07:33:20;;;;;;;7.00;4.47;;;3.60;99.90;;;;;;5078677;28;20051;-81
2020/12/19 07:35:46;;;;;;;7.45;4.22;;;3.70;99.90;;;;;;5097135;28;20013;-81
2020/12/19 07:38:12;;;;;;;6.32;4.30;;;3.60;99.90;;;;;;5078527;28;20024;-81
2020/12/19 07:40:38;;;;;;;7.18;4.20;;;3.70;99.90;;;;;;5078468;28;20039;-81
2020/12/19 07:43:08;;;;;;;6.85;4.20;;;3.70;99.90;;;;;;5096710;28;20020;-81
2020/12/19 07:45:36;;;;;;;8.32;4.70;;;3.60;99.90;;;;;;5078525;28;20490;-82
2020/12/19 07:48:02;;;;;;;8.88;4.32;;;3.40;99.90;;;;;;5096550;28;20023;-81
2020/12/19 07:50:33;;;;;;;6.10;4.32;;;3.50;99.90;;;;;;5078151;28;20443;-82
2020/12/19 07:53:04;;;;;;;8.15;5.03;;;3.60;99.90;;;;;;5096744;28;20023;-82
2020/12/19 07:55:30;;;;;;;9.20;4.68;;;3.60;99.90;;;;;;5096452;28;20048;-82
2020/12/19 07:57:56;;;;;;;11.65;6.20;;;3.90;99.90;;;;;;5096649;28;20553;-82
2020/12/19 08:00:26;;;;;;;8.27;4.88;;;4.20;99.90;;;;;;5096391;28;20479;-82
2020/12/19 08:02:52;;;;;;;8.02;5.22;;;4.50;99.90;;;;;;5096606;28;20153;-82
2020/12/19 08:05:18;;;;;;;8.35;4.47;;;4.60;99.90;;;;;;5078053;28;20031;-82
2020/12/19 08:07:44;;;;;;;7.15;4.80;;;4.70;99.90;;;;;;5096213;28;20020;-82
2020/12/19 08:10:12;;;;;;;7.38;4.63;;;5.10;99.90;;;;;;5078281;28;20375;-82
2020/12/19 08:12:41;;;;;;;8.77;4.35;;;5.20;99.90;;;;;;5096121;28;20103;-82
2020/12/19 08:15:27;;;;;;;6.78;4.45;;;5.30;99.90;;;;;;5096108;28;20095;-82
2020/12/19 08:18:06;;;;;;;4.28;3.67;;;5.30;99.90;;;;;;5077950;28;20360;-81
2020/12/19 08:20:36;;;;;;;5.57;3.83;;;5.50;99.90;;;;;;5078042;28;20179;-81
2020/12/19 08:23:07;;;;;;;7.13;4.28;;;5.60;99.90;;;;;;5077624;28;20039;-82
2020/12/19 08:25:33;;;;;;;6.07;3.95;;;5.50;99.90;;;;;;5096160;28;20035;-82
2020/12/19 08:27:59;;;;;;;5.43;4.25;;;5.60;99.90;;;;;;5095761;28;20383;-81
2020/12/19 08:30:25;;;;;;;8.02;4.45;;;5.70;99.90;;;;;;5077486;28;20020;-81
2020/12/19 08:33:00;;;;;;;7.05;4.50;;;5.50;99.90;;;;;;5077047;28;20016;-81
2020/12/19 08:35:32;;;;;;;8.10;5.78;;;5.50;99.90;;;;;;5095560;28;20376;-81
2020/12/19 08:38:08;;;;;;;10.38;5.90;;;5.50;99.90;;;;;;5095986;28;20028;-81
2020/12/19 08:40:43;;;;;;;10.27;4.97;;;5.70;99.90;;;;;;5077443;28;20028;-81
2020/12/19 08:43:10;;;;;;;7.50;5.13;;;5.80;99.90;;;;;;5077399;28;20024;-81
2020/12/19 08:45:41;;;;;;;6.20;4.57;;;6.00;99.90;;;;;;5077418;28;20479;-81
2020/12/19 08:48:09;;;;;;;4.95;3.72;;;6.40;99.90;;;;;;5077285;28;20386;-81
2020/12/19 08:50:39;;;;;;;4.68;3.92;;;6.50;99.90;;;;;;5095883;28;20081;-81
2020/12/19 08:53:07;;;;;;;6.70;3.70;;;6.50;99.90;;;;;;5095392;28;20030;-81
2020/12/19 08:55:33;;;;;;;12.48;4.55;;;6.60;99.90;;;;;;5077128;28;20024;-80
2020/12/19 08:57:59;;;;;;;5.57;4.10;;;6.80;99.90;;;;;;5077152;28;20113;-81
2020/12/19 09:00:32;;;;;;;6.53;4.32;;;7.10;99.90;;;;;;5095516;28;20356;-82
2020/12/19 09:03:01;;;;;;;6.78;4.28;;;7.10;99.90;;;;;;5076947;28;20024;-81
2020/12/19 09:05:34;;;;;;;7.22;3.88;;;7.20;99.90;;;;;;5076915;28;20054;-81
2020/12/19 09:08:00;;;;;;;9.93;5.35;;;7.20;99.90;;;;;;5095362;28;20070;-81
2020/12/19 09:10:29;;;;;;;15.93;9.77;;;7.40;99.90;;;;;;5094882;28;20032;-81
2020/12/19 09:13:12;;;;;;;11.27;5.85;;;7.20;99.90;;;;;;5094964;28;20029;-81
2020/12/19 09:15:42;;;;;;;6.32;4.00;;;7.20;99.90;;;;;;5094844;28;20058;-81
2020/12/19 09:18:14;;;;;;;5.57;4.30;;;7.60;99.90;;;;;;5076690;28;20077;-82
2020/12/19 09:20:39;;;;;;;8.70;4.85;;;7.80;99.90;;;;;;5094785;28;20024;-81
2020/12/19 09:23:06;;;;;;;10.63;5.00;;;7.90;99.90;;;;;;5076712;28;20556;-81
2020/12/19 09:25:33;;;;;;;7.80;4.25;;;8.00;99.90;;;;;;5076508;28;20028;-81
2020/12/19 09:27:58;;;;;;;5.45;3.80;;;8.20;99.90;;;;;;5076613;28;20077;-81
2020/12/19 09:30:25;;;;;;;5.07;3.90;;;8.10;99.90;;;;;;5094609;28;20489;-81
2020/12/19 09:32:50;;;;;;;5.38;3.72;;;8.30;99.90;;;;;;5094523;28;20028;-81
2020/12/19 09:35:16;;;;;;;6.35;4.03;;;8.50;99.90;;;;;;5094727;28;20218;-81
2020/12/19 09:37:42;;;;;;;5.43;3.80;;;8.70;99.90;;;;;;5094563;28;20055;-81
2020/12/19 09:40:07;;;;;;;5.53;3.60;;;8.70;99.90;;;;;;5076346;28;20036;-81
2020/12/19 09:42:33;;;;;;;10.90;4.03;;;8.80;99.90;;;;;;5094297;28;20103;-81
2020/12/19 09:44:59;;;;;;;9.00;3.95;;;9.00;99.90;;;;;;5076072;28;20059;-81
2020/12/19 09:47:25;;;;;;;5.40;3.53;;;9.10;99.90;;;;;;5094306;28;20020;-81
2020/12/19 09:49:50;;;;;;;5.13;3.70;;;9.20;99.90;;;;;;5076035;28;20471;-81
2020/12/19 09:52:16;;;;;;;7.90;4.18;;;9.50;99.90;;;;;;5094239;28;20055;-81
2020/12/19 09:54:42;;;;;;;6.97;4.40;;;9.50;99.90;;;;;;5094455;28;20016;-81
2020/12/19 09:57:07;;;;;;;6.05;4.13;;;9.50;99.90;;;;;;5076058;28;20503;-81
2020/12/19 09:59:33;;;;;;;5.80;4.00;;;9.50;99.90;;;;;;5094138;28;20028;-82
2020/12/19 10:01:59;;;;;;;7.75;4.40;;;9.50;99.90;;;;;;5094027;28;20032;-82
2020/12/19 10:04:24;;;;;;;5.63;3.40;;;9.60;99.90;;;;;;5094101;28;20075;-81
2020/12/19 10:06:51;;;;;;;5.55;3.85;;;9.60;99.90;;;;;;5094053;28;20028;-82
2020/12/19 10:09:16;;;;;;;5.65;3.70;;;9.90;99.90;;;;;;5093967;28;20053;-83
2020/12/19 10:11:42;;;;;;;7.53;3.85;;;10.10;99.90;;;;;;5094484;28;20483;-82
2020/12/19 10:14:08;;;;;;;7.22;4.13;;;10.20;99.90;;;;;;5075750;28;20475;-81
2020/12/19 10:16:33;;;;;;;6.50;3.83;;;10.50;99.90;;;;;;5094101;28;20490;-82
2020/12/19 10:18:59;;;;;;;6.82;4.38;;;10.40;99.90;;;;;;5075695;28;20544;-81
2020/12/19 10:21:25;;;;;;;20.33;10.27;;;10.20;99.90;;;;;;5093606;28;20043;-81
2020/12/19 10:23:50;;;;;;;28.60;13.40;;;10.20;99.90;;;;;;5093750;28;20027;-79
2020/12/19 10:26:16;;;;;;;16.10;7.20;;;10.10;99.90;;;;;;5075499;28;20016;-81
2020/12/19 10:28:41;;;;;;;8.13;4.88;;;9.90;99.90;;;;;;5093905;28;20021;-81
2020/12/19 10:31:07;;;;;;;8.27;4.22;;;9.80;99.90;;;;;;5093861;28;20503;-81
2020/12/19 10:33:33;;;;;;;8.95;5.25;;;9.80;99.90;;;;;;5075617;28;20078;-81
2020/12/19 10:35:58;;;;;;;10.27;5.38;;;9.80;99.90;;;;;;5093584;28;20016;-82
2020/12/19 10:38:24;;;;;;;15.73;5.72;;;9.80;99.90;;;;;;5075548;28;20073;-81
2020/12/19 10:40:50;;;;;;;7.50;4.22;;;9.80;99.90;;;;;;5093556;28;20028;-81
2020/12/19 10:43:16;;;;;;;5.97;4.25;;;10.00;99.90;;;;;;5093567;28;20057;-81
2020/12/19 10:45:41;;;;;;;10.60;3.80;;;10.30;99.90;;;;;;5093523;28;20092;-82
2020/12/19 10:48:07;;;;;;;6.90;3.97;;;10.50;99.90;;;;;;5075534;28;20035;-82
2020/12/19 10:50:32;;;;;;;6.43;4.28;;;10.90;99.90;;;;;;5093497;28;20059;-83
2020/12/19 10:52:58;;;;;;;5.90;2.85;;;11.20;99.90;;;;;;5093504;28;20020;-82
2020/12/19 10:55:24;;;;;;;5.18;2.60;;;11.20;99.90;;;;;;5075336;28;20024;-82
2020/12/19 10:57:50;;;;;;;7.35;4.40;;;11.10;99.90;;;;;;5096383;28;20027;-82
2020/12/19 11:00:17;;;;;;;6.75;3.97;;;11.00;99.90;;;;;;5079374;28;20031;-84
2020/12/19 11:02:44;;;;;;;5.80;3.03;;;11.00;99.90;;;;;;5079385;28;20036;-82
2020/12/19 11:05:10;;;;;;;4.40;2.65;;;10.90;99.90;;;;;;5097494;28;20417;-82
2020/12/19 11:07:35;;;;;;;6.40;2.95;;;11.00;99.90;;;;;;5097710;28;20083;-83
2020/12/19 11:10:03;;;;;;;4.53;2.60;;;11.00;99.90;;;;;;5097826;28;20103;-82
2020/12/19 11:12:29;;;;;;;3.72;2.55;;;11.00;99.90;;;;;;5079145;28;20479;-82
2020/12/19 11:14:54;;;;;;;8.65;2.58;;;11.00;99.90;;;;;;5097249;28;20073;-82
2020/12/19 11:17:20;;;;;;;5.07;2.58;;;11.20;99.90;;;;;;5097195;28;20085;-82
2020/12/19 11:19:46;;;;;;;5.75;2.70;;;11.30;99.90;;;;;;5097189;28;20024;-82
2020/12/19 11:22:11;;;;;;;6.85;2.10;;;11.30;99.90;;;;;;5097147;28;20052;-82
2020/12/19 11:24:37;;;;;;;4.72;2.92;;;11.40;99.90;;;;;;5078970;28;20024;-82
2020/12/19 11:27:03;;;;;;;5.30;2.83;;;11.40;99.90;;;;;;5097073;28;20020;-83
2020/12/19 11:29:28;;;;;;;5.88;2.80;;;11.60;99.90;;;;;;5078742;28;20050;-80
2020/12/19 11:31:54;;;;;;;5.78;2.80;;;11.50;99.90;;;;;;5096916;28;20032;-81
2020/12/19 11:34:20;;;;;;;6.90;3.50;;;11.30;99.90;;;;;;5078645;28;20107;-80
2020/12/19 11:36:46;;;;;;;4.80;2.40;;;11.20;99.90;;;;;;5096827;28;20040;-83
2020/12/19 11:39:12;;;;;;;7.40;2.80;;;11.50;99.90;;;;;;5096966;28;20079;-84
2020/12/19 11:41:39;;;;;;;6.18;2.55;;;12.00;99.90;;;;;;5078630;28;20395;-82
2020/12/19 11:44:06;;;;;;;4.68;2.78;;;12.20;99.90;;;;;;5097027;28;20016;-83
2020/12/19 11:46:32;;;;;;;4.07;2.63;;;12.30;99.90;;;;;;5096821;28;20056;-82
2020/12/19 11:48:58;;;;;;;3.63;2.38;;;12.50;99.90;;;;;;5097109;28;20052;-83
2020/12/19 11:51:33;;;;;;;4.25;2.38;;;13.00;99.90;;;;;;5078518;28;20024;-83
2020/12/19 11:53:59;;;;;;;4.20;1.60;;;13.20;99.90;;;;;;5078571;28;20494;-83
2020/12/19 11:56:33;;;;;;;2.70;1.33;;;13.00;99.90;;;;;;5096496;28;20027;-83
2020/12/19 11:58:59;;;;;;;3.15;1.50;;;13.20;99.90;;;;;;5078494;28;20023;-83
2020/12/19 12:01:31;;;;;;;3.65;1.40;;;12.60;99.90;;;;;;5078537;28;20471;-84
2020/12/19 12:03:57;;;;;;;1.90;1.20;;;12.50;99.90;;;;;;5078133;28;20037;-83
2020/12/19 12:06:31;;;;;;;13.02;4.68;;;12.70;99.90;;;;;;5096259;28;20024;-83
2020/12/19 12:08:58;;;;;;;3.20;1.67;;;13.30;99.90;;;;;;5094923;28;20356;-83
2020/12/19 12:11:28;;;;;;;4.13;1.30;;;14.00;99.90;;;;;;5096457;28;20432;-83
2020/12/19 12:13:54;;;;;;;1.42;1.08;;;14.60;99.90;;;;;;5095990;28;20024;-83
2020/12/19 12:16:20;;;;;;;2.85;1.33;;;15.40;99.10;;;;;;5077858;28;20020;-83
2020/12/19 12:18:46;;;;;;;6.55;1.23;;;16.10;97.60;;;;;;5095998;28;20065;-83
2020/12/19 12:21:12;;;;;;;2.80;1.20;;;16.00;94.80;;;;;;5077670;28;20051;-83
2020/12/19 12:23:38;;;;;;;2.90;1.27;;;15.80;93.60;;;;;;5077887;28;20031;-83
2020/12/19 12:26:04;;;;;;;2.13;1.08;;;15.80;91.80;;;;;;5095950;28;20043;-83
2020/12/19 12:28:30;;;;;;;3.38;1.02;;;16.30;91.20;;;;;;5077793;28;20539;-82
2020/12/19 12:30:57;;;;;;;2.47;1.17;;;16.40;88.10;;;;;;5095786;28;20024;-83
2020/12/19 12:33:23;;;;;;;5.43;1.25;;;16.60;88.40;;;;;;5078137;28;20025;-82
2020/12/19 12:35:50;;;;;;;2.15;1.45;;;16.00;89.50;;;;;;5077527;28;20020;-85
2020/12/19 12:38:15;;;;;;;3.90;1.60;;;16.00;89.90;;;;;;5077617;28;20078;-82
2020/12/19 12:40:41;;;;;;;2.65;1.63;;;15.70;90.20;;;;;;5077503;28;20032;-82
2020/12/19 12:43:08;;;;;;;1.55;1.30;;;15.90;90.70;;;;;;5095642;28;20024;-79
2020/12/19 12:45:33;;;;;;;4.13;1.83;;;16.40;90.10;;;;;;5095560;28;20024;-83
2020/12/19 12:47:59;;;;;;;4.30;2.55;;;16.90;89.70;;;;;;5077292;28;20433;-83
2020/12/19 12:50:25;;;;;;;3.67;1.77;;;16.60;90.00;;;;;;5095451;28;20032;-83
2020/12/19 12:52:50;;;;;;;2.60;1.60;;;16.50;90.00;;;;;;5095673;28;20020;-83
2020/12/19 12:55:16;;;;;;;4.25;1.80;;;16.70;90.10;;;;;;5095303;28;20558;-83